Sylmar, CA

1:00 PM PST on November 27, 2014 (GMT -0800)
Whiteman | Change Station
CLOSE
Current Station
Airport
Location: San Fernando,
Elevation: 1004 ft
Nearby Weather Stations

Elev 1004 ft 34.26 °N, 118.41 °W | Updated 1 hour ago

Clear
Clear
81 °F
Feels Like 81 °F
N
7
Wind Variable Wind from WNW

Today
High -- | Low -- °F
--% Chance of Precip.
Yesterday
High -- | Low -- °F
Precip. -- in
6:38 AM 4:44 PM
Waxing Crescent, 33% visible
Pressure 30.15 in
Visibility 20.0 miles
Clouds Clear
Dew Point 18 °F
Humidity 10%
Rainfall 0.00 in
Snow Depth Not available.
UV 4 out of 12
Pollen 2.80 out of 12
Air Quality Not available.
Flu Activity Not available.
METAR KWHP 271947Z 29006KT 20SM SKC 27/M08 A3015

More Conditions Fewer Conditions

Pressure 30.15 in
Visibility 20.0 miles
Clouds Clear
Dew Point 18 °F
Humidity 10%
Rainfall 0.00 in
Snow Depth Not available.
UV 4 out of 12
Pollen 2.80 out of 12
Air Quality Not available.
Flu Activity Not available.
METAR KWHP 271947Z 29006KT 20SM SKC 27/M08 A3015

More Conditions Fewer Conditions

10-Day Weather Forecast

Almanac

Astronomy

Nov. 27, 2014 Rise Set
Actual Time
Civil Twilight
Nautical Twilight
Astronomical Twilight
Moon
Length of Visible Light
Length of Day
Tomorrow will be .
, % of the Moon is Illuminated

Today's Extremes

State Highs State Lows

Community

WunderPhotos

Upload Photos

1,774,104 photos uploaded!

WunderBlogs® & News

Nearby

Air Quality

  Air Quality AQ Index Pollutant
Not available.

Snow Depth

Station Depth Elevation

Earthquake Activity

City Distance Mag. Time & Date
Minimum magnitude displayed is 2.5.

Coastal Water Temperatures

Place Temperature

Nearby Weather Stations